sensor_id;sensor_type;location;lat;lon;timestamp;P1;durP1;ratioP1;P2;durP2;ratioP2
51636;SDS011;37713;53.254;6.460;2022-08-25T00:01:41;18.52;;;15.02;;
51636;SDS011;37713;53.254;6.460;2022-08-25T00:04:11;18.90;;;15.10;;
51636;SDS011;37713;53.254;6.460;2022-08-25T00:06:38;17.75;;;14.63;;
51636;SDS011;37713;53.254;6.460;2022-08-25T00:09:05;16.75;;;14.50;;
51636;SDS011;37713;53.254;6.460;2022-08-25T00:11:32;15.20;;;13.55;;
51636;SDS011;37713;53.254;6.460;2022-08-25T00:14:01;15.35;;;13.38;;
51636;SDS011;37713;53.254;6.460;2022-08-25T00:16:29;19.90;;;13.57;;
51636;SDS011;37713;53.254;6.460;2022-08-25T00:18:56;15.65;;;12.73;;
51636;SDS011;37713;53.254;6.460;2022-08-25T00:21:25;17.13;;;13.02;;
51636;SDS011;37713;53.254;6.460;2022-08-25T00:23:51;15.05;;;12.60;;
51636;SDS011;37713;53.254;6.460;2022-08-25T00:26:19;15.55;;;12.35;;
51636;SDS011;37713;53.254;6.460;2022-08-25T00:28:46;14.95;;;11.77;;
51636;SDS011;37713;53.254;6.460;2022-08-25T00:31:12;14.93;;;11.77;;
51636;SDS011;37713;53.254;6.460;2022-08-25T00:33:42;13.60;;;11.20;;
51636;SDS011;37713;53.254;6.460;2022-08-25T00:36:09;14.63;;;11.30;;
51636;SDS011;37713;53.254;6.460;2022-08-25T00:38:40;16.58;;;11.63;;
51636;SDS011;37713;53.254;6.460;2022-08-25T00:41:08;17.63;;;13.65;;
51636;SDS011;37713;53.254;6.460;2022-08-25T00:46:21;12.73;;;9.52;;
51636;SDS011;37713;53.254;6.460;2022-08-25T00:49:18;13.90;;;9.90;;
51636;SDS011;37713;53.254;6.460;2022-08-25T00:54:38;12.18;;;8.48;;
51636;SDS011;37713;53.254;6.460;2022-08-25T00:57:08;12.18;;;8.57;;
51636;SDS011;37713;53.254;6.460;2022-08-25T00:59:36;9.75;;;7.97;;
51636;SDS011;37713;53.254;6.460;2022-08-25T01:02:04;11.85;;;8.80;;
51636;SDS011;37713;53.254;6.460;2022-08-25T01:04:31;13.35;;;8.77;;
51636;SDS011;37713;53.254;6.460;2022-08-25T01:06:57;12.25;;;8.15;;
51636;SDS011;37713;53.254;6.460;2022-08-25T01:09:24;10.00;;;7.68;;
51636;SDS011;37713;53.254;6.460;2022-08-25T01:11:52;10.20;;;7.93;;
51636;SDS011;37713;53.254;6.460;2022-08-25T01:14:18;11.68;;;7.80;;
51636;SDS011;37713;53.254;6.460;2022-08-25T01:16:45;11.10;;;7.82;;
51636;SDS011;37713;53.254;6.460;2022-08-25T01:19:12;11.48;;;7.75;;
51636;SDS011;37713;53.254;6.460;2022-08-25T01:21:41;11.23;;;7.15;;
51636;SDS011;37713;53.254;6.460;2022-08-25T01:24:09;11.95;;;7.32;;
51636;SDS011;37713;53.254;6.460;2022-08-25T01:26:40;9.48;;;7.22;;
51636;SDS011;37713;53.254;6.460;2022-08-25T01:29:06;10.38;;;7.40;;
51636;SDS011;37713;53.254;6.460;2022-08-25T01:31:45;9.07;;;7.00;;
51636;SDS011;37713;53.254;6.460;2022-08-25T01:34:20;10.48;;;7.13;;
51636;SDS011;37713;53.254;6.460;2022-08-25T01:36:47;10.40;;;6.97;;
51636;SDS011;37713;53.254;6.460;2022-08-25T01:39:13;8.90;;;6.88;;
51636;SDS011;37713;53.254;6.460;2022-08-25T01:44:38;9.93;;;6.90;;
51636;SDS011;37713;53.254;6.460;2022-08-25T01:47:06;12.23;;;7.60;;
51636;SDS011;37713;53.254;6.460;2022-08-25T01:49:32;9.60;;;7.10;;
51636;SDS011;37713;53.254;6.460;2022-08-25T01:52:00;9.95;;;7.22;;
51636;SDS011;37713;53.254;6.460;2022-08-25T01:54:29;8.52;;;6.45;;
51636;SDS011;37713;53.254;6.460;2022-08-25T01:56:56;9.75;;;7.15;;
51636;SDS011;37713;53.254;6.460;2022-08-25T01:59:22;9.55;;;7.00;;
51636;SDS011;37713;53.254;6.460;2022-08-25T02:01:50;10.75;;;7.30;;
51636;SDS011;37713;53.254;6.460;2022-08-25T02:04:16;12.15;;;6.68;;
51636;SDS011;37713;53.254;6.460;2022-08-25T02:06:42;9.40;;;6.95;;
51636;SDS011;37713;53.254;6.460;2022-08-25T02:09:12;8.32;;;6.25;;
51636;SDS011;37713;53.254;6.460;2022-08-25T02:11:40;9.98;;;6.40;;
51636;SDS011;37713;53.254;6.460;2022-08-25T02:14:08;12.00;;;6.55;;
51636;SDS011;37713;53.254;6.460;2022-08-25T02:16:36;9.77;;;6.35;;
51636;SDS011;37713;53.254;6.460;2022-08-25T02:19:05;9.82;;;6.18;;
51636;SDS011;37713;53.254;6.460;2022-08-25T02:23:59;11.88;;;5.68;;
51636;SDS011;37713;53.254;6.460;2022-08-25T02:26:25;10.95;;;6.18;;
51636;SDS011;37713;53.254;6.460;2022-08-25T02:28:51;10.10;;;6.10;;
51636;SDS011;37713;53.254;6.460;2022-08-25T02:31:18;9.48;;;6.40;;
51636;SDS011;37713;53.254;6.460;2022-08-25T02:33:46;8.30;;;5.93;;
51636;SDS011;37713;53.254;6.460;2022-08-25T02:36:13;9.13;;;5.80;;
51636;SDS011;37713;53.254;6.460;2022-08-25T02:38:39;11.70;;;6.38;;
51636;SDS011;37713;53.254;6.460;2022-08-25T02:41:10;8.32;;;5.93;;
51636;SDS011;37713;53.254;6.460;2022-08-25T02:43:38;9.23;;;5.47;;
51636;SDS011;37713;53.254;6.460;2022-08-25T02:46:05;11.77;;;6.13;;
51636;SDS011;37713;53.254;6.460;2022-08-25T02:48:31;8.18;;;5.50;;
51636;SDS011;37713;53.254;6.460;2022-08-25T02:50:58;9.90;;;5.63;;
51636;SDS011;37713;53.254;6.460;2022-08-25T02:53:25;10.23;;;6.10;;
51636;SDS011;37713;53.254;6.460;2022-08-25T02:55:52;9.30;;;5.93;;
51636;SDS011;37713;53.254;6.460;2022-08-25T02:58:18;10.75;;;6.68;;
51636;SDS011;37713;53.254;6.460;2022-08-25T03:00:44;10.65;;;5.90;;
51636;SDS011;37713;53.254;6.460;2022-08-25T03:03:10;9.45;;;6.13;;
51636;SDS011;37713;53.254;6.460;2022-08-25T03:05:36;10.57;;;5.78;;
51636;SDS011;37713;53.254;6.460;2022-08-25T03:08:02;8.57;;;6.15;;
51636;SDS011;37713;53.254;6.460;2022-08-25T03:10:29;10.65;;;5.80;;
51636;SDS011;37713;53.254;6.460;2022-08-25T03:12:55;9.55;;;5.55;;
51636;SDS011;37713;53.254;6.460;2022-08-25T03:15:21;9.18;;;5.65;;
51636;SDS011;37713;53.254;6.460;2022-08-25T03:17:49;10.13;;;5.80;;
51636;SDS011;37713;53.254;6.460;2022-08-25T03:20:16;9.40;;;5.93;;
51636;SDS011;37713;53.254;6.460;2022-08-25T03:22:42;10.40;;;5.78;;
51636;SDS011;37713;53.254;6.460;2022-08-25T03:25:08;11.02;;;6.03;;
51636;SDS011;37713;53.254;6.460;2022-08-25T03:27:53;10.82;;;6.18;;
51636;SDS011;37713;53.254;6.460;2022-08-25T03:30:19;9.77;;;6.28;;
51636;SDS011;37713;53.254;6.460;2022-08-25T03:32:45;9.48;;;5.50;;
51636;SDS011;37713;53.254;6.460;2022-08-25T03:35:11;9.35;;;6.13;;
51636;SDS011;37713;53.254;6.460;2022-08-25T03:37:38;8.90;;;5.80;;
51636;SDS011;37713;53.254;6.460;2022-08-25T03:40:06;9.55;;;6.65;;
51636;SDS011;37713;53.254;6.460;2022-08-25T03:42:34;8.10;;;5.65;;
51636;SDS011;37713;53.254;6.460;2022-08-25T03:45:03;8.73;;;5.72;;
51636;SDS011;37713;53.254;6.460;2022-08-25T03:47:29;7.85;;;5.75;;
51636;SDS011;37713;53.254;6.460;2022-08-25T03:49:55;9.15;;;5.78;;
51636;SDS011;37713;53.254;6.460;2022-08-25T03:52:21;9.52;;;5.97;;
51636;SDS011;37713;53.254;6.460;2022-08-25T03:54:47;10.65;;;5.97;;
51636;SDS011;37713;53.254;6.460;2022-08-25T03:57:13;10.23;;;6.30;;
51636;SDS011;37713;53.254;6.460;2022-08-25T03:59:40;9.10;;;6.00;;
51636;SDS011;37713;53.254;6.460;2022-08-25T04:02:06;10.02;;;6.20;;
51636;SDS011;37713;53.254;6.460;2022-08-25T04:04:45;11.70;;;5.95;;
51636;SDS011;37713;53.254;6.460;2022-08-25T04:07:11;7.40;;;5.45;;
51636;SDS011;37713;53.254;6.460;2022-08-25T04:09:37;9.93;;;5.60;;
51636;SDS011;37713;53.254;6.460;2022-08-25T04:12:02;8.95;;;5.80;;
51636;SDS011;37713;53.254;6.460;2022-08-25T04:14:28;10.48;;;6.25;;
51636;SDS011;37713;53.254;6.460;2022-08-25T04:16:55;8.73;;;5.70;;
51636;SDS011;37713;53.254;6.460;2022-08-25T04:19:21;8.20;;;5.50;;
51636;SDS011;37713;53.254;6.460;2022-08-25T04:21:47;9.75;;;5.60;;
51636;SDS011;37713;53.254;6.460;2022-08-25T04:24:13;9.50;;;5.90;;
51636;SDS011;37713;53.254;6.460;2022-08-25T04:26:41;9.35;;;6.28;;
51636;SDS011;37713;53.254;6.460;2022-08-25T04:29:08;10.30;;;5.67;;
51636;SDS011;37713;53.254;6.460;2022-08-25T04:31:37;9.77;;;6.00;;
51636;SDS011;37713;53.254;6.460;2022-08-25T04:34:05;11.68;;;5.95;;
51636;SDS011;37713;53.254;6.460;2022-08-25T04:36:31;10.60;;;5.50;;
51636;SDS011;37713;53.254;6.460;2022-08-25T04:38:57;8.27;;;5.53;;
51636;SDS011;37713;53.254;6.460;2022-08-25T04:41:24;9.15;;;5.75;;
51636;SDS011;37713;53.254;6.460;2022-08-25T04:43:50;9.13;;;5.72;;
51636;SDS011;37713;53.254;6.460;2022-08-25T04:46:19;13.52;;;5.90;;
51636;SDS011;37713;53.254;6.460;2022-08-25T04:48:47;13.43;;;6.45;;
51636;SDS011;37713;53.254;6.460;2022-08-25T04:51:17;11.90;;;6.35;;
51636;SDS011;37713;53.254;6.460;2022-08-25T04:53:45;11.27;;;6.93;;
51636;SDS011;37713;53.254;6.460;2022-08-25T04:56:12;11.45;;;6.70;;
51636;SDS011;37713;53.254;6.460;2022-08-25T04:58:39;14.18;;;7.95;;
51636;SDS011;37713;53.254;6.460;2022-08-25T05:01:07;13.25;;;7.07;;
51636;SDS011;37713;53.254;6.460;2022-08-25T05:03:35;12.83;;;7.40;;
51636;SDS011;37713;53.254;6.460;2022-08-25T05:06:01;11.52;;;6.82;;
51636;SDS011;37713;53.254;6.460;2022-08-25T05:08:28;14.70;;;7.85;;
51636;SDS011;37713;53.254;6.460;2022-08-25T05:10:54;11.07;;;6.88;;
51636;SDS011;37713;53.254;6.460;2022-08-25T05:13:21;15.10;;;8.23;;
51636;SDS011;37713;53.254;6.460;2022-08-25T05:15:54;13.27;;;7.75;;
51636;SDS011;37713;53.254;6.460;2022-08-25T05:18:22;21.35;;;13.77;;
51636;SDS011;37713;53.254;6.460;2022-08-25T05:20:49;30.20;;;22.35;;
51636;SDS011;37713;53.254;6.460;2022-08-25T05:23:16;17.00;;;11.05;;
51636;SDS011;37713;53.254;6.460;2022-08-25T05:25:42;11.95;;;8.70;;
51636;SDS011;37713;53.254;6.460;2022-08-25T05:28:08;14.93;;;7.53;;
51636;SDS011;37713;53.254;6.460;2022-08-25T05:30:36;12.63;;;7.20;;
51636;SDS011;37713;53.254;6.460;2022-08-25T05:33:03;13.90;;;6.93;;
51636;SDS011;37713;53.254;6.460;2022-08-25T05:35:29;9.90;;;6.78;;
51636;SDS011;37713;53.254;6.460;2022-08-25T05:37:55;14.55;;;6.00;;
51636;SDS011;37713;53.254;6.460;2022-08-25T05:40:21;12.23;;;6.60;;
51636;SDS011;37713;53.254;6.460;2022-08-25T05:42:48;12.80;;;6.55;;
51636;SDS011;37713;53.254;6.460;2022-08-25T05:45:15;11.60;;;6.70;;
51636;SDS011;37713;53.254;6.460;2022-08-25T05:47:41;13.02;;;6.90;;
51636;SDS011;37713;53.254;6.460;2022-08-25T05:50:08;10.40;;;6.47;;
51636;SDS011;37713;53.254;6.460;2022-08-25T05:52:34;14.50;;;9.10;;
51636;SDS011;37713;53.254;6.460;2022-08-25T05:55:00;14.20;;;8.45;;
51636;SDS011;37713;53.254;6.460;2022-08-25T05:57:26;13.45;;;6.97;;
51636;SDS011;37713;53.254;6.460;2022-08-25T05:59:52;11.48;;;7.15;;
51636;SDS011;37713;53.254;6.460;2022-08-25T06:02:18;12.75;;;7.20;;
51636;SDS011;37713;53.254;6.460;2022-08-25T06:05:02;11.73;;;7.25;;
51636;SDS011;37713;53.254;6.460;2022-08-25T06:07:28;13.75;;;7.35;;
51636;SDS011;37713;53.254;6.460;2022-08-25T06:09:54;9.57;;;6.32;;
51636;SDS011;37713;53.254;6.460;2022-08-25T06:12:20;10.80;;;6.43;;
51636;SDS011;37713;53.254;6.460;2022-08-25T06:14:46;13.52;;;6.90;;
51636;SDS011;37713;53.254;6.460;2022-08-25T06:17:13;14.73;;;7.03;;
51636;SDS011;37713;53.254;6.460;2022-08-25T06:19:40;10.18;;;6.78;;
51636;SDS011;37713;53.254;6.460;2022-08-25T06:22:06;12.52;;;7.25;;
51636;SDS011;37713;53.254;6.460;2022-08-25T06:24:31;11.90;;;6.38;;
51636;SDS011;37713;53.254;6.460;2022-08-25T06:26:58;12.43;;;6.88;;
51636;SDS011;37713;53.254;6.460;2022-08-25T06:29:25;11.85;;;6.70;;
51636;SDS011;37713;53.254;6.460;2022-08-25T06:31:51;10.23;;;6.30;;
51636;SDS011;37713;53.254;6.460;2022-08-25T06:34:17;10.70;;;6.05;;
51636;SDS011;37713;53.254;6.460;2022-08-25T06:36:43;11.50;;;6.40;;
51636;SDS011;37713;53.254;6.460;2022-08-25T06:39:09;10.13;;;6.10;;
51636;SDS011;37713;53.254;6.460;2022-08-25T06:41:35;13.98;;;6.70;;
51636;SDS011;37713;53.254;6.460;2022-08-25T06:44:01;10.75;;;6.10;;
51636;SDS011;37713;53.254;6.460;2022-08-25T06:46:28;17.10;;;6.07;;
51636;SDS011;37713;53.254;6.460;2022-08-25T06:48:55;9.05;;;5.28;;
51636;SDS011;37713;53.254;6.460;2022-08-25T06:51:22;11.10;;;5.93;;
51636;SDS011;37713;53.254;6.460;2022-08-25T06:53:50;9.10;;;5.35;;
51636;SDS011;37713;53.254;6.460;2022-08-25T06:56:17;10.90;;;5.60;;
51636;SDS011;37713;53.254;6.460;2022-08-25T06:58:45;10.90;;;5.57;;
51636;SDS011;37713;53.254;6.460;2022-08-25T07:01:13;11.85;;;5.32;;
51636;SDS011;37713;53.254;6.460;2022-08-25T07:03:42;16.42;;;6.18;;
51636;SDS011;37713;53.254;6.460;2022-08-25T07:06:08;10.48;;;5.75;;
51636;SDS011;37713;53.254;6.460;2022-08-25T07:08:34;10.52;;;5.15;;
51636;SDS011;37713;53.254;6.460;2022-08-25T07:11:07;11.35;;;4.97;;
51636;SDS011;37713;53.254;6.460;2022-08-25T07:13:35;8.68;;;4.93;;
51636;SDS011;37713;53.254;6.460;2022-08-25T07:16:02;8.25;;;4.80;;
51636;SDS011;37713;53.254;6.460;2022-08-25T07:18:29;11.25;;;4.80;;
51636;SDS011;37713;53.254;6.460;2022-08-25T07:20:56;8.48;;;4.63;;
51636;SDS011;37713;53.254;6.460;2022-08-25T07:23:22;8.23;;;4.50;;
51636;SDS011;37713;53.254;6.460;2022-08-25T07:25:49;31.13;;;24.70;;
51636;SDS011;37713;53.254;6.460;2022-08-25T07:28:15;12.27;;;7.60;;
51636;SDS011;37713;53.254;6.460;2022-08-25T07:30:42;11.43;;;5.70;;
51636;SDS011;37713;53.254;6.460;2022-08-25T07:33:08;10.68;;;5.15;;
51636;SDS011;37713;53.254;6.460;2022-08-25T07:35:34;8.20;;;4.45;;
51636;SDS011;37713;53.254;6.460;2022-08-25T07:38:01;7.63;;;4.28;;
51636;SDS011;37713;53.254;6.460;2022-08-25T07:40:29;9.38;;;4.55;;
51636;SDS011;37713;53.254;6.460;2022-08-25T07:43:02;15.27;;;4.80;;
51636;SDS011;37713;53.254;6.460;2022-08-25T07:45:32;13.77;;;4.97;;
51636;SDS011;37713;53.254;6.460;2022-08-25T07:48:07;9.75;;;4.82;;
51636;SDS011;37713;53.254;6.460;2022-08-25T07:50:35;10.32;;;4.60;;
51636;SDS011;37713;53.254;6.460;2022-08-25T07:53:03;12.38;;;8.02;;
51636;SDS011;37713;53.254;6.460;2022-08-25T07:55:29;20.83;;;16.25;;
51636;SDS011;37713;53.254;6.460;2022-08-25T07:57:56;9.93;;;6.15;;
51636;SDS011;37713;53.254;6.460;2022-08-25T08:00:24;9.13;;;4.80;;
51636;SDS011;37713;53.254;6.460;2022-08-25T08:02:54;10.05;;;4.60;;
51636;SDS011;37713;53.254;6.460;2022-08-25T08:05:21;11.40;;;5.05;;
51636;SDS011;37713;53.254;6.460;2022-08-25T08:07:47;8.40;;;4.50;;
51636;SDS011;37713;53.254;6.460;2022-08-25T08:10:13;9.35;;;4.45;;
51636;SDS011;37713;53.254;6.460;2022-08-25T08:12:40;9.90;;;4.50;;
51636;SDS011;37713;53.254;6.460;2022-08-25T08:15:06;10.57;;;4.22;;
51636;SDS011;37713;53.254;6.460;2022-08-25T08:17:32;8.82;;;4.65;;
51636;SDS011;37713;53.254;6.460;2022-08-25T08:19:59;8.63;;;4.53;;
51636;SDS011;37713;53.254;6.460;2022-08-25T08:22:25;10.77;;;6.00;;
51636;SDS011;37713;53.254;6.460;2022-08-25T08:24:53;9.48;;;4.60;;
51636;SDS011;37713;53.254;6.460;2022-08-25T08:27:19;11.68;;;4.80;;
51636;SDS011;37713;53.254;6.460;2022-08-25T08:29:45;8.27;;;4.50;;
51636;SDS011;37713;53.254;6.460;2022-08-25T08:32:12;7.25;;;4.15;;
51636;SDS011;37713;53.254;6.460;2022-08-25T08:34:38;9.90;;;4.28;;
51636;SDS011;37713;53.254;6.460;2022-08-25T08:37:06;9.25;;;3.72;;
51636;SDS011;37713;53.254;6.460;2022-08-25T08:39:33;8.82;;;4.20;;
51636;SDS011;37713;53.254;6.460;2022-08-25T08:48:07;13.05;;;4.25;;
51636;SDS011;37713;53.254;6.460;2022-08-25T08:50:55;9.05;;;4.18;;
51636;SDS011;37713;53.254;6.460;2022-08-25T08:56:33;6.38;;;3.70;;
51636;SDS011;37713;53.254;6.460;2022-08-25T08:59:12;8.48;;;3.70;;
51636;SDS011;37713;53.254;6.460;2022-08-25T09:01:50;7.85;;;4.07;;
51636;SDS011;37713;53.254;6.460;2022-08-25T09:07:02;8.18;;;3.92;;
51636;SDS011;37713;53.254;6.460;2022-08-25T09:09:33;8.90;;;3.47;;
51636;SDS011;37713;53.254;6.460;2022-08-25T09:23:29;6.95;;;3.47;;
51636;SDS011;37713;53.254;6.460;2022-08-25T09:25:59;5.68;;;3.33;;
51636;SDS011;37713;53.254;6.460;2022-08-25T09:28:47;10.50;;;3.78;;
51636;SDS011;37713;53.254;6.460;2022-08-25T09:33:54;7.65;;;3.38;;
51636;SDS011;37713;53.254;6.460;2022-08-25T09:36:22;5.43;;;3.08;;
51636;SDS011;37713;53.254;6.460;2022-08-25T09:38:48;7.97;;;3.90;;
51636;SDS011;37713;53.254;6.460;2022-08-25T09:41:15;8.13;;;3.45;;
51636;SDS011;37713;53.254;6.460;2022-08-25T09:43:58;8.60;;;3.33;;
51636;SDS011;37713;53.254;6.460;2022-08-25T09:46:25;7.30;;;3.65;;
51636;SDS011;37713;53.254;6.460;2022-08-25T09:48:53;6.18;;;2.97;;
51636;SDS011;37713;53.254;6.460;2022-08-25T09:51:29;5.28;;;3.03;;
51636;SDS011;37713;53.254;6.460;2022-08-25T09:53:58;6.30;;;2.85;;
51636;SDS011;37713;53.254;6.460;2022-08-25T09:56:31;5.13;;;3.20;;
51636;SDS011;37713;53.254;6.460;2022-08-25T10:01:49;8.30;;;2.90;;
51636;SDS011;37713;53.254;6.460;2022-08-25T10:04:26;8.23;;;2.83;;
51636;SDS011;37713;53.254;6.460;2022-08-25T10:06:53;11.63;;;3.20;;
51636;SDS011;37713;53.254;6.460;2022-08-25T10:09:39;7.18;;;3.38;;
51636;SDS011;37713;53.254;6.460;2022-08-25T10:12:17;6.80;;;3.10;;
51636;SDS011;37713;53.254;6.460;2022-08-25T10:14:56;5.45;;;2.53;;
51636;SDS011;37713;53.254;6.460;2022-08-25T10:17:31;6.80;;;2.70;;
51636;SDS011;37713;53.254;6.460;2022-08-25T10:22:39;7.78;;;2.97;;
51636;SDS011;37713;53.254;6.460;2022-08-25T10:25:08;7.72;;;2.80;;
51636;SDS011;37713;53.254;6.460;2022-08-25T10:35:45;4.72;;;2.53;;
51636;SDS011;37713;53.254;6.460;2022-08-25T10:43:32;6.03;;;2.85;;
51636;SDS011;37713;53.254;6.460;2022-08-25T10:49:02;6.35;;;2.80;;
51636;SDS011;37713;53.254;6.460;2022-08-25T10:51:48;9.50;;;3.13;;
51636;SDS011;37713;53.254;6.460;2022-08-25T10:56:52;6.20;;;3.10;;
51636;SDS011;37713;53.254;6.460;2022-08-25T11:02:28;7.38;;;3.42;;
51636;SDS011;37713;53.254;6.460;2022-08-25T11:07:47;7.57;;;3.58;;
51636;SDS011;37713;53.254;6.460;2022-08-25T11:10:21;9.23;;;3.40;;
51636;SDS011;37713;53.254;6.460;2022-08-25T11:13:03;6.68;;;2.97;;
51636;SDS011;37713;53.254;6.460;2022-08-25T11:15:50;6.20;;;3.03;;
51636;SDS011;37713;53.254;6.460;2022-08-25T11:18:18;8.98;;;3.05;;
51636;SDS011;37713;53.254;6.460;2022-08-25T11:23:45;6.30;;;2.97;;
51636;SDS011;37713;53.254;6.460;2022-08-25T11:26:27;8.57;;;3.30;;
51636;SDS011;37713;53.254;6.460;2022-08-25T11:29:03;5.72;;;2.75;;
51636;SDS011;37713;53.254;6.460;2022-08-25T11:31:34;7.28;;;2.55;;
51636;SDS011;37713;53.254;6.460;2022-08-25T11:34:02;4.80;;;2.40;;
51636;SDS011;37713;53.254;6.460;2022-08-25T11:36:33;6.05;;;2.63;;
51636;SDS011;37713;53.254;6.460;2022-08-25T11:41:58;4.90;;;2.70;;
51636;SDS011;37713;53.254;6.460;2022-08-25T11:47:24;5.50;;;2.95;;
51636;SDS011;37713;53.254;6.460;2022-08-25T11:52:46;5.95;;;3.28;;
51636;SDS011;37713;53.254;6.460;2022-08-25T12:00:48;7.97;;;3.17;;
51636;SDS011;37713;53.254;6.460;2022-08-25T12:06:32;10.63;;;3.70;;
51636;SDS011;37713;53.254;6.460;2022-08-25T12:35:38;5.70;;;2.80;;
51636;SDS011;37713;53.254;6.460;2022-08-25T12:38:33;5.45;;;2.58;;
51636;SDS011;37713;53.254;6.460;2022-08-25T12:41:08;6.03;;;2.63;;
51636;SDS011;37713;53.254;6.460;2022-08-25T12:43:43;6.03;;;2.83;;
51636;SDS011;37713;53.254;6.460;2022-08-25T12:51:51;7.05;;;2.92;;
51636;SDS011;37713;53.254;6.460;2022-08-25T12:57:55;5.63;;;2.55;;
51636;SDS011;37713;53.254;6.460;2022-08-25T12:59:57;4.95;;;2.47;;
51636;SDS011;37713;53.254;6.460;2022-08-25T13:06:08;4.53;;;2.53;;
51636;SDS011;37713;53.254;6.460;2022-08-25T13:08:45;5.15;;;2.58;;
51636;SDS011;37713;53.254;6.460;2022-08-25T13:11:28;5.03;;;2.72;;
51636;SDS011;37713;53.254;6.460;2022-08-25T13:16:56;6.00;;;2.83;;
51636;SDS011;37713;53.254;6.460;2022-08-25T13:19:23;6.60;;;2.90;;
51636;SDS011;37713;53.254;6.460;2022-08-25T13:21:50;6.20;;;2.53;;
51636;SDS011;37713;53.254;6.460;2022-08-25T13:24:18;5.65;;;2.85;;
51636;SDS011;37713;53.254;6.460;2022-08-25T13:26:45;6.07;;;2.70;;
51636;SDS011;37713;53.254;6.460;2022-08-25T13:29:17;5.22;;;2.90;;
51636;SDS011;37713;53.254;6.460;2022-08-25T13:32:03;5.22;;;2.90;;
51636;SDS011;37713;53.254;6.460;2022-08-25T13:34:35;4.97;;;2.90;;
51636;SDS011;37713;53.254;6.460;2022-08-25T13:37:15;4.72;;;2.65;;
51636;SDS011;37713;53.254;6.460;2022-08-25T13:42:49;5.63;;;2.75;;
51636;SDS011;37713;53.254;6.460;2022-08-25T13:45:22;5.65;;;2.30;;
51636;SDS011;37713;53.254;6.460;2022-08-25T13:47:49;4.63;;;2.63;;
51636;SDS011;37713;53.254;6.460;2022-08-25T13:50:18;5.82;;;2.80;;
51636;SDS011;37713;53.254;6.460;2022-08-25T13:52:46;4.90;;;2.30;;
51636;SDS011;37713;53.254;6.460;2022-08-25T13:55:18;4.30;;;2.53;;
51636;SDS011;37713;53.254;6.460;2022-08-25T13:57:47;5.65;;;2.60;;
51636;SDS011;37713;53.254;6.460;2022-08-25T14:00:23;4.55;;;2.83;;
51636;SDS011;37713;53.254;6.460;2022-08-25T14:02:53;4.15;;;2.45;;
51636;SDS011;37713;53.254;6.460;2022-08-25T14:05:33;6.38;;;2.90;;
51636;SDS011;37713;53.254;6.460;2022-08-25T14:08:05;5.93;;;2.63;;
51636;SDS011;37713;53.254;6.460;2022-08-25T14:10:52;5.97;;;2.80;;
51636;SDS011;37713;53.254;6.460;2022-08-25T14:13:31;6.10;;;2.75;;
51636;SDS011;37713;53.254;6.460;2022-08-25T14:18:54;5.03;;;2.80;;
51636;SDS011;37713;53.254;6.460;2022-08-25T14:21:23;5.15;;;2.60;;
51636;SDS011;37713;53.254;6.460;2022-08-25T14:23:51;4.43;;;2.70;;
51636;SDS011;37713;53.254;6.460;2022-08-25T14:26:18;5.55;;;2.80;;
51636;SDS011;37713;53.254;6.460;2022-08-25T14:28:43;4.80;;;2.50;;
51636;SDS011;37713;53.254;6.460;2022-08-25T14:31:14;4.63;;;2.63;;
51636;SDS011;37713;53.254;6.460;2022-08-25T14:34:00;7.95;;;2.70;;
51636;SDS011;37713;53.254;6.460;2022-08-25T14:36:32;4.38;;;2.50;;
51636;SDS011;37713;53.254;6.460;2022-08-25T14:38:59;5.65;;;2.40;;
51636;SDS011;37713;53.254;6.460;2022-08-25T14:41:30;6.53;;;2.83;;
51636;SDS011;37713;53.254;6.460;2022-08-25T14:43:58;6.00;;;2.90;;
51636;SDS011;37713;53.254;6.460;2022-08-25T14:46:26;4.53;;;2.55;;
51636;SDS011;37713;53.254;6.460;2022-08-25T14:48:55;4.68;;;2.33;;
51636;SDS011;37713;53.254;6.460;2022-08-25T14:51:24;4.57;;;2.30;;
51636;SDS011;37713;53.254;6.460;2022-08-25T14:53:52;4.95;;;2.70;;
51636;SDS011;37713;53.254;6.460;2022-08-25T14:56:20;5.40;;;2.78;;
51636;SDS011;37713;53.254;6.460;2022-08-25T14:58:46;6.57;;;2.70;;
51636;SDS011;37713;53.254;6.460;2022-08-25T15:01:12;7.15;;;2.97;;
51636;SDS011;37713;53.254;6.460;2022-08-25T15:03:41;4.93;;;2.75;;
51636;SDS011;37713;53.254;6.460;2022-08-25T15:06:10;6.32;;;3.20;;
51636;SDS011;37713;53.254;6.460;2022-08-25T15:08:37;6.13;;;2.88;;
51636;SDS011;37713;53.254;6.460;2022-08-25T15:11:22;7.55;;;3.13;;
51636;SDS011;37713;53.254;6.460;2022-08-25T15:13:48;6.38;;;3.10;;
51636;SDS011;37713;53.254;6.460;2022-08-25T15:16:16;5.88;;;3.05;;
51636;SDS011;37713;53.254;6.460;2022-08-25T15:18:48;5.63;;;3.05;;
51636;SDS011;37713;53.254;6.460;2022-08-25T15:21:14;6.95;;;2.95;;
51636;SDS011;37713;53.254;6.460;2022-08-25T15:23:40;6.90;;;3.47;;
51636;SDS011;37713;53.254;6.460;2022-08-25T15:26:07;6.32;;;3.63;;
51636;SDS011;37713;53.254;6.460;2022-08-25T15:28:36;8.55;;;3.20;;
51636;SDS011;37713;53.254;6.460;2022-08-25T15:31:04;5.85;;;3.00;;
51636;SDS011;37713;53.254;6.460;2022-08-25T15:33:30;6.45;;;3.22;;
51636;SDS011;37713;53.254;6.460;2022-08-25T15:35:56;8.10;;;3.50;;
51636;SDS011;37713;53.254;6.460;2022-08-25T15:38:22;6.80;;;3.08;;
51636;SDS011;37713;53.254;6.460;2022-08-25T15:40:48;8.20;;;3.53;;
51636;SDS011;37713;53.254;6.460;2022-08-25T15:43:14;5.32;;;3.15;;
51636;SDS011;37713;53.254;6.460;2022-08-25T15:45:41;6.82;;;3.08;;
51636;SDS011;37713;53.254;6.460;2022-08-25T15:48:07;6.22;;;3.13;;
51636;SDS011;37713;53.254;6.460;2022-08-25T15:50:32;8.40;;;3.53;;
51636;SDS011;37713;53.254;6.460;2022-08-25T15:52:58;6.35;;;3.50;;
51636;SDS011;37713;53.254;6.460;2022-08-25T15:55:24;6.97;;;3.25;;
51636;SDS011;37713;53.254;6.460;2022-08-25T15:57:50;6.82;;;3.15;;
51636;SDS011;37713;53.254;6.460;2022-08-25T16:00:16;8.43;;;3.88;;
51636;SDS011;37713;53.254;6.460;2022-08-25T16:02:43;5.78;;;3.38;;
51636;SDS011;37713;53.254;6.460;2022-08-25T16:05:09;5.88;;;3.35;;
51636;SDS011;37713;53.254;6.460;2022-08-25T16:07:35;6.72;;;3.17;;
51636;SDS011;37713;53.254;6.460;2022-08-25T16:10:02;5.57;;;3.20;;
51636;SDS011;37713;53.254;6.460;2022-08-25T16:12:29;6.75;;;3.42;;
51636;SDS011;37713;53.254;6.460;2022-08-25T16:14:55;6.18;;;3.33;;
51636;SDS011;37713;53.254;6.460;2022-08-25T16:17:21;5.95;;;3.88;;
51636;SDS011;37713;53.254;6.460;2022-08-25T16:19:47;9.90;;;3.40;;
51636;SDS011;37713;53.254;6.460;2022-08-25T16:22:13;9.13;;;3.50;;
51636;SDS011;37713;53.254;6.460;2022-08-25T16:24:40;6.95;;;3.25;;
51636;SDS011;37713;53.254;6.460;2022-08-25T16:27:09;5.63;;;3.22;;
51636;SDS011;37713;53.254;6.460;2022-08-25T16:29:39;5.38;;;3.28;;
51636;SDS011;37713;53.254;6.460;2022-08-25T16:32:06;6.40;;;3.45;;
51636;SDS011;37713;53.254;6.460;2022-08-25T16:34:33;5.25;;;3.00;;
51636;SDS011;37713;53.254;6.460;2022-08-25T16:36:59;5.95;;;3.20;;
51636;SDS011;37713;53.254;6.460;2022-08-25T16:39:25;5.72;;;3.20;;
51636;SDS011;37713;53.254;6.460;2022-08-25T16:41:51;6.28;;;3.20;;
51636;SDS011;37713;53.254;6.460;2022-08-25T16:44:18;5.15;;;3.10;;
51636;SDS011;37713;53.254;6.460;2022-08-25T16:46:44;6.97;;;3.17;;
51636;SDS011;37713;53.254;6.460;2022-08-25T16:49:11;5.80;;;3.78;;
51636;SDS011;37713;53.254;6.460;2022-08-25T16:51:39;5.78;;;3.05;;
51636;SDS011;37713;53.254;6.460;2022-08-25T16:54:06;7.45;;;3.47;;
51636;SDS011;37713;53.254;6.460;2022-08-25T16:56:52;8.52;;;3.30;;
51636;SDS011;37713;53.254;6.460;2022-08-25T16:59:19;5.20;;;3.53;;
51636;SDS011;37713;53.254;6.460;2022-08-25T17:01:45;4.78;;;3.00;;
51636;SDS011;37713;53.254;6.460;2022-08-25T17:04:11;5.50;;;3.15;;
51636;SDS011;37713;53.254;6.460;2022-08-25T17:06:37;7.90;;;3.28;;
51636;SDS011;37713;53.254;6.460;2022-08-25T17:09:05;6.07;;;3.80;;